Terminal Aerodrome Forecast
Issued by NWS

Home | Current Version | Previous Version | Text Only | Print | Product List | Glossary On
Versions: 1 2 3 4 5 6 7 8 9 10 11 12 13 14 15 16 17 18 19 20
869
FTUS41 KBTV 102331
TAFMSS
TAF
KMSS 102331Z 1100/1124 25006KT P6SM VCSH SCT025 OVC040
      TEMPO 1100/1104 3SM -SHSN BR BKN025
     FM110400 27006KT P6SM VCSH OVC025
     FM111700 28012G20KT P6SM VCSH OVC015=

USA.gov is the U.S. government's official web portal to all federal, state and local government web resources and services.